Terminal Aerodrome Forecast
Issued by NWS

Home | Current Version | Previous Version | Text Only | Print | Product List | Glossary On
Versions: 1 2 3 4 5 6 7 8 9 10 11 12 13 14 15 16 17 18 19 20 21 22 23 24 25
000
FTUS44 KBMX 031938 AAA
TAFANB
TAF AMD
KANB 031938Z 0320/0418 26010KT P6SM BKN040
     FM040000 22004KT P6SM BKN050
     FM040600 22007KT 3SM +TSRA BKN015CB OVC030
     FM041100 24012KT P6SM OVC020=

USA.gov is the U.S. government's official web portal to all federal, state and local government web resources and services.